createdAt,value
2023-04-23T00:00:34.336Z,22.8
2023-04-23T00:15:32.117Z,22.8
2023-04-23T00:30:32.741Z,22.7
2023-04-23T00:45:32.165Z,22.7
2023-04-23T01:00:32.861Z,22.6
2023-04-23T01:15:32.817Z,22.6
2023-04-23T01:30:32.210Z,22.5
2023-04-23T01:45:31.997Z,22.5
2023-04-23T02:00:32.421Z,22.4
2023-04-23T02:15:32.104Z,22.4
2023-04-23T02:30:32.130Z,22.4
2023-04-23T02:45:32.136Z,22.3
2023-04-23T03:00:32.831Z,22.3
2023-04-23T03:15:32.532Z,22.4
2023-04-23T03:30:32.826Z,22.4
2023-04-23T03:45:31.944Z,22.4
2023-04-23T04:00:32.190Z,22.4
2023-04-23T04:15:32.547Z,22.4
2023-04-23T04:30:32.273Z,22.4
2023-04-23T04:45:32.805Z,22.3
2023-04-23T05:00:32.631Z,22.3
2023-04-23T05:15:32.710Z,22.3
2023-04-23T05:30:32.371Z,22.2
2023-04-23T05:45:32.235Z,22.2
2023-04-23T06:00:33.412Z,22.2
2023-04-23T06:15:32.242Z,22.2
2023-04-23T06:30:32.230Z,22.1
2023-04-23T06:45:32.129Z,22.1
2023-04-23T07:00:33.326Z,22.1
2023-04-23T07:15:32.394Z,22.1
2023-04-23T07:30:33.804Z,22.1
2023-04-23T07:45:31.986Z,22.0
2023-04-23T08:00:32.826Z,22.0
2023-04-23T08:15:32.644Z,22.0
2023-04-23T08:30:33.240Z,22
2023-04-23T08:45:32.955Z,22
2023-04-23T09:00:33.402Z,22
2023-04-23T09:15:32.406Z,22.1
2023-04-23T09:30:32.612Z,22.1
2023-04-23T09:45:32.462Z,22.1
2023-04-23T10:00:33.464Z,22.1
2023-04-23T10:15:32.310Z,22.2
2023-04-23T10:30:32.964Z,22.2
2023-04-23T10:45:32.680Z,22.2
2023-04-23T11:00:33.405Z,22.3
2023-04-23T11:15:32.707Z,22.3
2023-04-23T11:30:32.388Z,22.3
2023-04-23T11:45:32.394Z,22.3
2023-04-23T12:00:33.157Z,22.4
2023-04-23T12:15:32.994Z,22.4
2023-04-23T12:30:32.873Z,22.4
2023-04-23T12:45:32.077Z,22.5
2023-04-23T13:00:32.378Z,22.5
2023-04-23T13:15:32.061Z,22.5
2023-04-23T13:30:33.982Z,22.5
2023-04-23T13:45:32.396Z,22.5
2023-04-23T14:00:33.592Z,22.6
2023-04-23T14:15:32.608Z,22.6
2023-04-23T14:30:33.462Z,22.7
2023-04-23T14:45:32.095Z,22.7
2023-04-23T15:00:32.581Z,22.7
2023-04-23T15:30:33.637Z,22.7
2023-04-23T15:45:32.680Z,22.8
2023-04-23T16:00:33.890Z,22.9
2023-04-23T16:15:32.493Z,22.9
2023-04-23T16:30:32.522Z,23.0
2023-04-23T16:45:32.566Z,22.9
2023-04-23T17:00:33.651Z,22.9
2023-04-23T17:15:32.480Z,22.9
2023-04-23T17:30:33.252Z,22.8
2023-04-23T17:45:32.016Z,22.8
2023-04-23T18:00:33.598Z,22.8
2023-04-23T18:15:31.988Z,22.8
2023-04-23T18:30:32.569Z,22.7
2023-04-23T18:45:32.364Z,22.7
2023-04-23T19:00:32.232Z,22.6
2023-04-23T19:15:32.993Z,22.6
2023-04-23T19:30:32.198Z,22.6
2023-04-23T19:45:32.825Z,22.5
2023-04-23T20:00:32.105Z,22.5
2023-04-23T20:15:32.789Z,22.4
2023-04-23T20:30:32.537Z,22.4
2023-04-23T20:45:32.480Z,22.4
2023-04-23T21:00:32.839Z,22.3
2023-04-23T21:15:32.124Z,22.3
2023-04-23T21:30:32.242Z,22.3
2023-04-23T21:45:32.108Z,22.3
2023-04-23T22:00:33.027Z,22.3
2023-04-23T22:15:32.008Z,22.3
2023-04-23T22:30:32.125Z,22.3
2023-04-23T22:45:32.353Z,22.3
2023-04-23T23:00:32.144Z,22.3
2023-04-23T23:15:32.042Z,22.2
2023-04-23T23:30:31.958Z,22.2
2023-04-23T23:45:32.650Z,22.2
